Date,TemperatureHighF,TemperatureAvgF,TemperatureLowF,DewpointHighF,DewpointAvgF,DewpointLowF,HumidityHigh,HumidityAvg,HumidityLow,PressureMaxIn,PressureMinIn,WindSpeedMaxMPH,WindSpeedAvgMPH,GustSpeedMaxMPH,PrecipitationSumIn
2012-1-4,33,33,32,-100,-100,-100,0,0,100,0.00,40.00,0,-999,0,0.00
2012-1-5,37,34,31,-100,-100,-100,0,0,100,0.00,40.00,0,-999,0,0.00
2012-1-6,36,31,27,-100,-100,-100,0,0,100,0.00,40.00,0,-999,0,0.00
2012-1-7,34,27,20,-100,-100,-100,0,0,100,0.00,40.00,0,-999,0,0.00
2012-1-8,38,31,27,-100,-100,-100,0,0,100,0.00,40.00,0,-999,0,0.00
2012-1-9,37,32,29,-100,-100,-100,0,0,100,0.00,40.00,0,-999,0,0.00
2012-1-10,36,30,23,-100,-100,-100,0,0,100,0.00,40.00,0,-999,0,0.00
2012-1-11,27,18,11,-100,-100,-100,0,0,100,0.00,40.00,0,-999,0,0.00
2012-1-12,27,16,8,-100,-100,-100,0,0,100,0.00,40.00,0,-999,0,0.00
2012-1-13,24,14,6,-100,-100,-100,0,0,100,0.00,40.00,0,-999,0,0.00
2012-1-14,29,23,16,-100,-100,-100,0,0,100,0.00,40.00,0,-999,0,0.00
2012-1-15,28,22,15,-100,-100,-100,0,0,100,0.00,40.00,0,-999,0,0.00
2012-1-16,27,21,13,-100,-100,-100,0,0,100,0.00,40.00,0,-999,0,0.00
2012-1-17,27,24,23,-100,-100,-100,0,0,100,0.00,40.00,0,-999,0,0.00
2012-1-18,22,20,17,-100,-100,-100,0,0,100,0.00,40.00,0,-999,0,0.00
2012-1-19,18,15,12,-100,-100,-100,0,0,100,0.00,40.00,0,-999,0,0.00
2012-1-20,21,18,14,-100,-100,-100,0,0,100,0.00,40.00,0,-999,0,0.00
2012-1-21,35,27,19,-100,-100,-100,0,0,100,0.00,40.00,0,-999,0,0.00
2012-1-22,30,29,26,-100,-100,-100,0,0,100,0.00,40.00,0,-999,0,0.00
2012-1-23,32,25,18,-100,-100,-100,0,0,100,0.00,40.00,0,-999,0,0.00
2012-1-24,28,26,25,-100,-100,-100,0,0,100,0.00,40.00,0,-999,0,0.00
2012-1-25,32,29,27,-100,-100,-100,0,0,100,0.00,40.00,0,-999,0,0.00
2012-1-26,29,27,26,-100,-100,-100,0,0,100,0.00,40.00,0,-999,0,0.00
2012-1-27,30,23,13,-100,-100,-100,0,0,100,0.00,40.00,0,-999,0,0.00
2012-1-28,33,32,32,-100,-100,-100,0,0,100,0.00,40.00,0,-999,0,0.00
2012-1-29,40,35,31,-100,-100,-100,0,0,100,0.00,40.00,0,-999,0,0.00
2012-1-30,41,34,29,-100,-100,-100,0,0,100,0.00,40.00,0,-999,0,0.00
2012-1-31,40,33,28,-100,-100,-100,0,0,100,0.00,40.00,0,-999,0,0.00
2012-2-1,40,34,25,-100,-100,-100,0,0,100,0.00,40.00,0,-999,0,0.00
2012-2-2,39,28,22,-100,-100,-100,0,0,100,0.00,40.00,0,-999,0,0.00
2012-2-3,38,27,18,-100,-100,-100,0,0,100,0.00,40.00,0,-999,0,0.00
2012-2-4,39,26,19,-100,-100,-100,0,0,100,0.00,40.00,0,-999,0,0.00
2012-2-5,35,24,17,-100,-100,-100,0,0,100,0.00,40.00,0,-999,0,0.00
2012-2-6,38,24,14,-100,-100,-100,0,0,100,0.00,40.00,0,-999,0,0.00
2012-2-7,39,28,20,-100,-100,-100,0,0,100,0.00,40.00,0,-999,0,0.00
2012-2-8,41,33,28,-100,-100,-100,0,0,100,0.00,40.00,0,-999,0,0.00
2012-2-9,38,34,32,-100,-100,-100,0,0,100,0.00,40.00,0,-999,0,0.00
2012-2-10,39,34,32,-100,-100,-100,0,0,100,0.00,40.00,0,-999,0,0.00
2012-2-11,40,34,28,-100,-100,-100,0,0,100,0.00,40.00,0,-999,0,0.00
2012-2-12,43,32,23,-100,-100,-100,0,0,100,0.00,40.00,0,-999,0,0.00
2012-2-13,44,34,27,-100,-100,-100,0,0,100,0.00,40.00,0,-999,0,0.00
2012-2-14,40,31,25,-100,-100,-100,0,0,100,0.00,40.00,0,-999,0,0.00
2012-2-15,41,29,20,-100,-100,-100,0,0,100,0.00,40.00,0,-999,0,0.00
2012-2-16,36,31,24,-100,-100,-100,0,0,100,0.00,40.00,0,-999,0,0.00
2012-2-17,36,33,31,-100,-100,-100,0,0,100,0.00,40.00,0,-999,0,0.00
2012-2-18,35,32,31,-100,-100,-100,0,0,100,0.00,40.00,0,-999,0,0.00
2012-2-19,38,34,29,-100,-100,-100,0,0,100,0.00,40.00,0,-999,0,0.00
2012-2-20,38,32,26,-100,-100,-100,0,0,100,0.00,40.00,0,-999,0,0.00
2012-2-21,43,36,32,-100,-100,-100,0,0,100,0.00,40.00,0,-999,0,0.00
2012-2-22,37,34,32,-100,-100,-100,0,0,100,0.00,40.00,0,-999,0,0.00
2012-2-23,40,34,30,-100,-100,-100,0,0,100,0.00,40.00,0,-999,0,0.00
2012-2-24,41,34,30,-100,-100,-100,0,0,100,0.00,40.00,0,-999,0,0.00
2012-2-25,38,33,30,-100,-100,-100,0,0,100,0.00,40.00,0,-999,0,0.00
2012-2-26,36,30,24,-100,-100,-100,0,0,100,0.00,40.00,0,-999,0,0.00
2012-2-27,33,26,20,-100,-100,-100,0,0,100,0.00,40.00,0,-999,0,0.00
2012-2-28,35,26,18,-100,-100,-100,0,0,100,0.00,40.00,0,-999,0,0.00
2012-2-29,35,30,26,-100,-100,-100,0,0,100,0.00,40.00,0,-999,0,0.00
2012-3-1,42,30,20,-100,-100,-100,0,0,100,0.00,40.00,0,-999,0,0.00
2012-3-2,41,34,26,-100,-100,-100,0,0,100,0.00,40.00,0,-999,0,0.00
2012-3-3,45,40,37,-100,-100,-100,0,0,100,0.00,40.00,0,-999,0,0.00
2012-3-4,53,39,34,-100,-100,-100,0,0,100,0.00,40.00,0,-999,0,0.00
2012-3-5,41,34,28,-100,-100,-100,0,0,100,0.00,40.00,0,-999,0,0.00
2012-3-6,40,26,-13,-100,-100,-100,0,0,100,0.00,40.00,0,-999,0,0.00
2012-3-7,44,31,24,-100,-100,-100,0,0,100,0.00,40.00,0,-999,0,0.00
2012-3-8,44,31,22,-100,-100,-100,0,0,100,0.00,40.00,0,-999,0,0.00
2012-3-9,51,35,24,-100,-100,-100,0,0,100,0.00,40.00,0,-999,0,0.00
2012-3-10,44,37,33,-100,-100,-100,0,0,100,0.00,40.00,0,-999,0,0.00
2012-3-11,44,34,26,-100,-100,-100,0,0,100,0.00,40.00,0,-999,0,0.00
2012-3-12,33,29,25,-100,-100,-100,0,0,100,0.00,40.00,0,-999,0,0.00
2012-3-13,36,32,27,-100,-100,-100,0,0,100,0.00,40.00,0,-999,0,0.00
2012-3-14,37,30,25,-100,-100,-100,0,0,100,0.00,40.00,0,-999,0,0.00
2012-3-15,39,33,30,-100,-100,-100,0,0,100,0.00,40.00,0,-999,0,0.00
2012-3-16,47,36,31,-100,-100,-100,0,0,100,0.00,40.00,0,-999,0,0.00
2012-3-17,47,34,26,-100,-100,-100,0,0,100,0.00,40.00,0,-999,0,0.00
2012-3-18,44,32,23,-100,-100,-100,0,0,100,0.00,40.00,0,-999,0,0.00
2012-3-19,45,33,27,-100,-100,-100,0,0,100,0.00,40.00,0,-999,0,0.00
2012-3-20,35,30,30,-100,-100,-100,0,0,100,0.00,40.00,0,-999,0,0.00
2012-3-21,45,33,27,-100,-100,-100,0,0,100,0.00,40.00,0,-999,0,0.00
2012-3-22,40,34,27,-100,-100,-100,0,0,100,0.00,40.00,0,-999,0,0.00
2012-3-23,46,34,25,-100,-100,-100,0,0,100,0.00,40.00,0,-999,0,0.00
2012-3-24,41,30,22,-100,-100,-100,0,0,100,0.00,40.00,0,-999,0,0.00
2012-3-25,48,34,25,-100,-100,-100,0,0,100,0.00,40.00,0,-999,0,0.00
2012-3-26,48,38,29,-100,-100,-100,0,0,100,0.00,40.00,0,-999,0,0.00
2012-3-27,41,34,28,-100,-100,-100,0,0,100,0.00,40.00,0,-999,0,0.00
2012-3-28,52,38,34,-100,-100,-100,0,0,100,0.00,40.00,0,-999,0,0.00
2012-3-29,37,35,32,-100,-100,-100,0,0,100,0.00,40.00,0,-999,0,0.00
2012-3-30,46,37,33,-100,-100,-100,0,0,100,0.00,40.00,0,-999,0,0.00
2012-3-31,41,35,32,-100,-100,-100,0,0,100,0.00,40.00,0,-999,0,0.00
2012-4-1,45,36,28,-100,-100,-100,0,0,100,0.00,40.00,0,-999,0,0.00
2012-4-2,48,36,27,-100,-100,-100,0,0,100,0.00,40.00,0,-999,0,0.00
2012-4-3,47,38,32,-100,-100,-100,0,0,100,0.00,40.00,0,-999,0,0.00
2012-4-4,47,39,33,-100,-100,-100,0,0,100,0.00,40.00,0,-999,0,0.00
2012-4-5,47,34,25,-100,-100,-100,0,0,100,0.00,40.00,0,-999,0,0.00
2012-4-6,42,34,30,-100,-100,-100,0,0,100,0.00,40.00,0,-999,0,0.00
2012-4-7,48,37,28,-100,-100,-100,0,0,100,0.00,40.00,0,-999,0,0.00
2012-4-8,53,41,26,-100,-100,-100,0,0,100,0.00,40.00,0,-999,0,0.00
2012-4-9,63,42,29,-100,-100,-100,0,0,100,0.00,40.00,0,-999,0,0.00
2012-4-10,58,40,30,-100,-100,-100,0,0,100,0.00,40.00,0,-999,0,0.00
2012-4-11,51,39,29,-100,-100,-100,0,0,100,0.00,40.00,0,-999,0,0.00
2012-4-12,58,40,30,-100,-100,-100,0,0,100,0.00,40.00,0,-999,0,0.00
2012-4-13,58,41,26,-100,-100,-100,0,0,100,0.00,40.00,0,-999,0,0.00
2012-4-14,55,40,27,-100,-100,-100,0,0,100,0.00,40.00,0,-999,0,0.00
2012-4-15,59,44,34,-100,-100,-100,0,0,100,0.00,40.00,0,-999,0,0.00
2012-4-16,46,39,34,-100,-100,-100,0,0,100,0.00,40.00,0,-999,0,0.00
2012-4-17,55,42,33,-100,-100,-100,0,0,100,0.00,40.00,0,-999,0,0.00
2012-4-18,52,40,33,-100,-100,-100,0,0,100,0.00,40.00,0,-999,0,0.00
2012-4-19,54,39,27,-100,-100,-100,0,0,100,0.00,40.00,0,-999,0,0.00
2012-4-20,52,42,35,-100,-100,-100,0,0,100,0.00,40.00,0,-999,0,0.00
2012-4-21,64,45,29,-100,-100,-100,0,0,100,0.00,40.00,0,-999,0,0.00
2012-4-22,67,50,34,-100,-100,-100,0,0,100,0.00,40.00,0,-999,0,0.00
2012-4-23,72,54,37,-100,-100,-100,0,0,100,0.00,40.00,0,-999,0,0.00
2012-4-24,65,50,39,-100,-100,-100,0,0,100,0.00,40.00,0,-999,0,0.00
2012-4-25,59,48,40,-100,-100,-100,0,0,100,0.00,40.00,0,-999,0,0.00
2012-4-26,46,43,38,-100,-100,-100,0,0,100,0.00,40.00,0,-999,0,0.00
2012-4-27,51,44,36,-100,-100,-100,0,0,100,0.00,40.00,0,-999,0,0.00
2012-4-28,62,47,34,-100,-100,-100,0,0,100,0.00,40.00,0,-999,0,0.00
2012-4-29,63,48,33,-100,-100,-100,0,0,100,0.00,40.00,0,-999,0,0.00
2012-4-30,54,45,39,-100,-100,-100,0,0,100,0.00,40.00,0,-999,0,0.00
2012-5-1,52,44,39,-100,-100,-100,0,0,100,0.00,40.00,0,-999,0,0.00
2012-5-2,55,45,35,-100,-100,-100,0,0,100,0.00,40.00,0,-999,0,0.00
2012-5-3,47,42,39,-100,-100,-100,0,0,100,0.00,40.00,0,-999,0,0.00
2012-5-4,48,44,38,-100,-100,-100,0,0,100,0.00,40.00,0,-999,0,0.00
2012-5-5,55,44,34,-100,-100,-100,0,0,100,0.00,40.00,0,-999,0,0.00
2012-5-6,60,46,28,-100,-100,-100,0,0,100,0.00,40.00,0,-999,0,0.00
2012-5-7,66,51,32,-100,-100,-100,0,0,100,0.00,40.00,0,-999,0,0.00
2012-5-8,73,54,36,-100,-100,-100,0,0,100,0.00,40.00,0,-999,0,0.00
2012-5-9,55,48,38,-100,-100,-100,0,0,100,0.00,40.00,0,-999,0,0.00
2012-5-10,55,44,32,-100,-100,-100,0,0,100,0.00,40.00,0,-999,0,0.00
2012-5-11,63,47,27,-100,-100,-100,0,0,100,0.00,40.00,0,-999,0,0.00
2012-5-12,70,49,30,-100,-100,-100,0,0,100,0.00,40.00,0,-999,0,0.00
2012-5-13,77,61,34,-100,-100,-100,0,0,100,0.00,40.00,0,-999,0,0.00
2012-5-14,82,61,37,-100,-100,-100,0,0,100,0.00,40.00,0,-999,0,0.00
2012-5-15,85,64,44,-100,-100,-100,0,0,100,0.00,40.00,0,-999,0,0.00
2012-5-16,71,57,46,-100,-100,-100,0,0,100,0.00,40.00,0,-999,0,0.00
2012-5-17,71,52,38,-100,-100,-100,0,0,100,0.00,40.00,0,-999,0,0.00
2012-5-18,76,54,40,-100,-100,-100,0,0,100,0.00,40.00,0,-999,0,0.00
2012-5-19,75,56,36,-100,-100,-100,0,0,100,0.00,40.00,0,-999,0,0.00
2012-5-20,71,57,48,-100,-100,-100,0,0,100,0.00,40.00,0,-999,0,0.00
2012-5-21,66,55,46,-100,-100,-100,0,0,100,0.00,40.00,0,-999,0,0.00
2012-5-22,65,54,42,-100,-100,-100,0,0,100,0.00,40.00,0,-999,0,0.00
2012-5-23,60,50,41,-100,-100,-100,0,0,100,0.00,40.00,0,-999,0,0.00
2012-5-24,70,50,37,-100,-100,-100,0,0,100,0.00,40.00,0,-999,0,0.00
2012-5-25,66,54,40,-100,-100,-100,0,0,100,0.00,40.00,0,-999,0,0.00
2012-5-26,77,57,43,-100,-100,-100,0,0,100,0.00,40.00,0,-999,0,0.00
2012-5-27,74,55,40,-100,-100,-100,0,0,100,0.00,40.00,0,-999,0,0.00
2012-5-28,74,50,43,-100,-100,-100,0,0,100,0.00,40.00,0,-999,0,0.00
2012-5-29,65,55,44,-100,-100,-100,0,0,100,0.00,40.00,0,-999,0,0.00
2012-5-30,77,58,45,-100,-100,-100,0,0,100,0.00,40.00,0,-999,0,0.00
2012-5-31,68,59,50,-100,-100,-100,0,0,100,0.00,40.00,0,-999,0,0.00
2012-6-1,73,60,50,-100,-100,-100,0,0,100,0.00,40.00,0,-999,0,0.00
2012-6-2,63,56,47,-100,-100,-100,0,0,100,0.00,40.00,0,-999,0,0.00
2012-6-3,64,54,45,-100,-100,-100,0,0,100,0.00,40.00,0,-999,0,0.00
2012-6-4,54,49,44,-100,-100,-100,0,0,100,0.00,40.00,0,-999,0,0.00
2012-6-5,62,49,44,-100,-100,-100,0,0,100,0.00,40.00,0,-999,0,0.00
2012-6-6,59,49,39,-100,-100,-100,0,0,100,0.00,40.00,0,-999,0,0.00
2012-6-7,49,42,34,-100,-100,-100,0,0,100,0.00,40.00,0,-999,0,0.00
2012-6-8,59,48,36,-100,-100,-100,0,0,100,0.00,40.00,0,-999,0,0.00
2012-6-9,61,50,41,-100,-100,-100,0,0,100,0.00,40.00,0,-999,0,0.00
2012-6-10,72,56,47,-100,-100,-100,0,0,100,0.00,40.00,0,-999,0,0.00
2012-6-11,80,58,38,-100,-100,-100,0,0,100,0.00,40.00,0,-999,0,0.00
2012-6-12,67,59,53,-100,-100,-100,0,0,100,0.00,40.00,0,-999,0,0.00
2012-6-13,71,55,47,-100,-100,-100,0,0,100,0.00,40.00,0,-999,0,0.00
2012-6-14,70,52,43,-100,-100,-100,0,0,100,0.00,40.00,0,-999,0,0.00
2012-6-15,74,56,36,-100,-100,-100,0,0,100,0.00,40.00,0,-999,0,0.00
2012-6-16,75,62,54,-100,-100,-100,0,0,100,0.00,40.00,0,-999,0,0.00
2012-6-17,71,60,52,-100,-100,-100,0,0,100,0.00,40.00,0,-999,0,0.00
2012-6-18,72,54,47,-100,-100,-100,0,0,100,0.00,40.00,0,-999,0,0.00
2012-6-19,69,55,45,-100,-100,-100,0,0,100,0.00,40.00,0,-999,0,0.00
2012-6-20,80,70,53,-100,-100,-100,0,0,100,0.00,40.00,0,-999,0,0.00
2012-6-21,80,65,46,-100,-100,-100,0,0,100,0.00,40.00,0,-999,0,0.00
2012-6-22,64,60,51,-100,-100,-100,0,0,100,0.00,40.00,0,-999,0,0.00
2012-6-23,68,57,45,-100,-100,-100,0,0,100,0.00,40.00,0,-999,0,0.00
2012-6-24,68,53,43,-100,-100,-100,0,0,100,0.00,40.00,0,-999,0,0.00
2012-6-25,74,54,42,-100,-100,-100,0,0,100,0.00,40.00,0,-999,0,0.00
2012-6-26,55,50,46,-100,-100,-100,0,0,100,0.00,40.00,0,-999,0,0.00
2012-6-27,74,59,44,-100,-100,-100,0,0,100,0.00,40.00,0,-999,0,0.00
2012-6-28,81,62,45,-100,-100,-100,0,0,100,0.00,40.00,0,-999,0,0.00
2012-6-29,76,67,58,-100,-100,-100,0,0,100,0.00,40.00,0,-999,0,0.00
2012-6-30,82,67,59,-100,-100,-100,0,0,100,0.00,40.00,0,-999,0,0.00
2012-7-1,79,64,54,-100,-100,-100,0,0,100,0.00,40.00,0,-999,0,0.00
2012-7-2,72,62,52,-100,-100,-100,0,0,100,0.00,40.00,0,-999,0,0.00
2012-7-3,62,57,49,-100,-100,-100,0,0,100,0.00,40.00,0,-999,0,0.00
2012-7-4,76,56,42,-100,-100,-100,0,0,100,0.00,40.00,0,-999,0,0.00
2012-7-5,83,61,42,-100,-100,-100,0,0,100,0.00,40.00,0,-999,0,0.00
2012-7-6,88,63,44,-100,-100,-100,0,0,100,0.00,40.00,0,-999,0,0.00
2012-7-7,93,68,49,-100,-100,-100,0,0,100,0.00,40.00,0,-999,0,0.00
2012-7-8,96,71,51,-100,-100,-100,0,0,100,0.00,40.00,0,-999,0,0.00
2012-7-9,93,77,60,-100,-100,-100,0,0,100,0.00,40.00,0,-999,0,0.00
2012-7-10,91,72,61,-100,-100,-100,0,0,100,0.00,40.00,0,-999,0,0.00
2012-7-11,89,69,50,-100,-100,-100,0,0,100,0.00,40.00,0,-999,0,0.00
2012-7-12,95,71,54,-100,-100,-100,0,0,100,0.00,40.00,0,-999,0,0.00
2012-7-13,86,71,61,-100,-100,-100,0,0,100,0.00,40.00,0,-999,0,0.00
2012-7-14,86,70,56,-100,-100,-100,0,0,100,0.00,40.00,0,-999,0,0.00
2012-7-15,82,67,54,-100,-100,-100,0,0,100,0.00,40.00,0,-999,0,0.00
2012-7-16,86,67,52,-100,-100,-100,0,0,100,0.00,40.00,0,-999,0,0.00
2012-7-17,78,69,61,-100,-100,-100,0,0,100,0.00,40.00,0,-999,0,0.00
2012-7-18,85,70,58,-100,-100,-100,0,0,100,0.00,40.00,0,-999,0,0.00
2012-7-19,87,70,56,-100,-100,-100,0,0,100,0.00,40.00,0,-999,0,0.00
2012-7-20,66,63,56,-100,-100,-100,0,0,100,0.00,40.00,0,-999,0,0.00
2012-7-21,81,62,50,-100,-100,-100,0,0,100,0.00,40.00,0,-999,0,0.00
2012-7-22,79,61,49,-100,-100,-100,0,0,100,0.00,40.00,0,-999,0,0.00
2012-7-23,72,57,50,-100,-100,-100,0,0,100,0.00,40.00,0,-999,0,0.00
2012-7-24,83,62,45,-100,-100,-100,0,0,100,0.00,40.00,0,-999,0,0.00
2012-7-25,90,67,50,-100,-100,-100,0,0,100,0.00,40.00,0,-999,0,0.00
2012-7-26,92,66,53,-100,-100,-100,0,0,100,0.00,40.00,0,-999,0,0.00
2012-7-27,85,64,52,-100,-100,-100,0,0,100,0.00,40.00,0,-999,0,0.00
2012-7-28,81,66,55,-100,-100,-100,0,0,100,0.00,40.00,0,-999,0,0.00
2012-7-29,85,67,50,-100,-100,-100,0,0,100,0.00,40.00,0,-999,0,0.00
2012-7-30,82,68,60,-100,-100,-100,0,0,100,0.00,40.00,0,-999,0,0.00
2012-7-31,81,65,53,-100,-100,-100,0,0,100,0.00,40.00,0,-999,0,0.00
2012-8-1,85,64,52,-100,-100,-100,0,0,100,0.00,40.00,0,-999,0,0.00
2012-8-2,78,67,57,-100,-100,-100,0,0,100,0.00,40.00,0,-999,0,0.00
2012-8-3,85,64,48,-100,-100,-100,0,0,100,0.00,40.00,0,-999,0,0.00
2012-8-4,94,67,49,-100,-100,-100,0,0,100,0.00,40.00,0,-999,0,0.00
2012-8-5,96,70,53,-100,-100,-100,0,0,100,0.00,40.00,0,-999,0,0.00
2012-8-6,85,71,62,-100,-100,-100,0,0,100,0.00,40.00,0,-999,0,0.00
2012-8-7,91,72,52,-100,-100,-100,0,0,100,0.00,40.00,0,-999,0,0.00
2012-8-8,83,72,62,-100,-100,-100,0,0,100,0.00,40.00,0,-999,0,0.00
2012-8-9,82,67,53,-100,-100,-100,0,0,100,0.00,40.00,0,-999,0,0.00
2012-8-10,86,68,54,-100,-100,-100,0,0,100,0.00,40.00,0,-999,0,0.00
2012-8-11,88,69,53,-100,-100,-100,0,0,100,0.00,40.00,0,-999,0,0.00
2012-8-12,93,69,52,-100,-100,-100,0,0,100,0.00,40.00,0,-999,0,0.00
2012-8-13,94,70,53,-100,-100,-100,0,0,100,0.00,40.00,0,-999,0,0.00
2012-8-14,92,70,55,-100,-100,-100,0,0,100,0.00,40.00,0,-999,0,0.00
2012-8-15,83,66,53,-100,-100,-100,0,0,100,0.00,40.00,0,-999,0,0.00
2012-8-16,91,66,49,-100,-100,-100,0,0,100,0.00,40.00,0,-999,0,0.00
2012-8-17,94,69,52,-100,-100,-100,0,0,100,0.00,40.00,0,-999,0,0.00
2012-8-18,95,70,51,-100,-100,-100,0,0,100,0.00,40.00,0,-999,0,0.00
2012-8-19,90,70,54,-100,-100,-100,0,0,100,0.00,40.00,0,-999,0,0.00
2012-8-20,84,71,61,-100,-100,-100,0,0,100,0.00,40.00,0,-999,0,0.00
2012-8-21,85,65,52,-100,-100,-100,0,0,100,0.00,40.00,0,-999,0,0.00
2012-8-22,76,64,56,-100,-100,-100,0,0,100,0.00,40.00,0,-999,0,0.00
2012-8-23,74,60,52,-100,-100,-100,0,0,100,0.00,40.00,0,-999,0,0.00
2012-8-24,74,59,49,-100,-100,-100,0,0,100,0.00,40.00,0,-999,0,0.00
2012-8-25,78,55,40,-100,-100,-100,0,0,100,0.00,40.00,0,-999,0,0.00
2012-8-26,81,61,42,-100,-100,-100,0,0,100,0.00,40.00,0,-999,0,0.00
2012-8-27,82,66,55,-100,-100,-100,0,0,100,0.00,40.00,0,-999,0,0.00
2012-8-28,75,61,53,-100,-100,-100,0,0,100,0.00,40.00,0,-999,0,0.00
2012-8-29,75,60,49,-100,-100,-100,0,0,100,0.00,40.00,0,-999,0,0.00
2012-8-30,74,56,40,-100,-100,-100,0,0,100,0.00,40.00,0,-999,0,0.00
2012-8-31,76,58,46,-100,-100,-100,0,0,100,0.00,40.00,0,-999,0,0.00
2012-9-1,74,61,50,-100,-100,-100,0,0,100,0.00,40.00,0,-999,0,0.00
2012-9-2,77,61,49,-100,-100,-100,0,0,100,0.00,40.00,0,-999,0,0.00
2012-9-3,79,58,44,-100,-100,-100,0,0,100,0.00,40.00,0,-999,0,0.00
2012-9-4,78,60,44,-100,-100,-100,0,0,100,0.00,40.00,0,-999,0,0.00
2012-9-5,78,60,44,-100,-100,-100,0,0,100,0.00,40.00,0,-999,0,0.00
2012-9-6,79,60,46,-100,-100,-100,0,0,100,0.00,40.00,0,-999,0,0.00
2012-9-7,81,56,41,-100,-100,-100,0,0,100,0.00,40.00,0,-999,0,0.00
2012-9-8,81,60,41,-100,-100,-100,0,0,100,0.00,40.00,0,-999,0,0.00
2012-9-9,72,61,56,-100,-100,-100,0,0,100,0.00,40.00,0,-999,0,0.00
2012-9-10,64,56,46,-100,-100,-100,0,0,100,0.00,40.00,0,-999,0,0.00
2012-9-11,63,49,35,-100,-100,-100,0,0,100,0.00,40.00,0,-999,0,0.00
2012-9-12,66,48,33,-100,-100,-100,0,0,100,0.00,40.00,0,-999,0,0.00
2012-9-13,71,50,33,-100,-100,-100,0,0,100,0.00,40.00,0,-999,0,0.00
2012-9-14,71,54,38,-100,-100,-100,0,0,100,0.00,40.00,0,-999,0,0.00
2012-9-15,76,59,43,-100,-100,-100,0,0,100,0.00,40.00,0,-999,0,0.00
2012-9-16,76,58,44,-100,-100,-100,0,0,100,0.00,40.00,0,-999,0,0.00
2012-9-17,77,57,42,-100,-100,-100,0,0,100,0.00,40.00,0,-999,0,0.00
2012-9-18,75,57,42,-100,-100,-100,0,0,100,0.00,40.00,0,-999,0,0.00
2012-9-19,80,58,43,-100,-100,-100,0,0,100,0.00,40.00,0,-999,0,0.00
2012-9-20,73,55,41,-100,-100,-100,0,0,100,0.00,40.00,0,-999,0,0.00
2012-9-21,73,56,42,-100,-100,-100,0,0,100,0.00,40.00,0,-999,0,0.00
2012-9-22,66,55,46,-100,-100,-100,0,0,100,0.00,40.00,0,-999,0,0.00
2012-9-23,65,53,43,-100,-100,-100,0,0,100,0.00,40.00,0,-999,0,0.00
2012-9-24,74,57,43,-100,-100,-100,0,0,100,0.00,40.00,0,-999,0,0.00
2012-9-25,67,59,49,-100,-100,-100,0,0,100,0.00,40.00,0,-999,0,0.00
2012-9-26,70,54,41,-100,-100,-100,0,0,100,0.00,40.00,0,-999,0,0.00
2012-9-27,71,54,40,-100,-100,-100,0,0,100,0.00,40.00,0,-999,0,0.00
2012-9-28,67,52,40,-100,-100,-100,0,0,100,0.00,40.00,0,-999,0,0.00
2012-9-29,70,59,51,-100,-100,-100,0,0,100,0.00,40.00,0,-999,0,0.00
2012-9-30,70,57,44,-100,-100,-100,0,0,100,0.00,40.00,0,-999,0,0.00
2012-10-1,74,58,43,-100,-100,-100,0,0,100,0.00,40.00,0,-999,0,0.00
2012-10-2,61,55,37,-100,-100,-100,0,0,100,0.00,40.00,0,-999,0,0.00
2012-10-3,55,40,27,-100,-100,-100,0,0,100,0.00,40.00,0,-999,0,0.00
2012-10-4,56,39,27,-100,-100,-100,0,0,100,0.00,40.00,0,-999,0,0.00
2012-10-5,56,39,26,-100,-100,-100,0,0,100,0.00,40.00,0,-999,0,0.00
2012-10-6,59,40,26,-100,-100,-100,0,0,100,0.00,40.00,0,-999,0,0.00
2012-10-7,62,41,27,-100,-100,-100,0,0,100,0.00,40.00,0,-999,0,0.00
2012-10-8,66,45,29,-100,-100,-100,0,0,100,0.00,40.00,0,-999,0,0.00
2012-10-9,66,48,35,-100,-100,-100,0,0,100,0.00,40.00,0,-999,0,0.00
2012-10-10,67,47,34,-100,-100,-100,0,0,100,0.00,40.00,0,-999,0,0.00
2012-10-11,63,45,34,-100,-100,-100,0,0,100,0.00,40.00,0,-999,0,0.00
2012-10-12,60,48,35,-100,-100,-100,0,0,100,0.00,40.00,0,-999,0,0.00
2012-10-13,59,52,48,-100,-100,-100,0,0,100,0.00,40.00,0,-999,0,0.00
2012-10-14,57,54,52,-100,-100,-100,0,0,100,0.00,40.00,0,-999,0,0.00
2012-10-15,57,52,50,-100,-100,-100,0,0,100,0.00,40.00,0,-999,0,0.00
2012-10-16,50,44,39,-100,-100,-100,0,0,100,0.00,40.00,0,-999,0,0.00
2012-10-17,48,41,36,-100,-100,-100,0,0,100,0.00,40.00,0,-999,0,0.00
2012-10-18,54,46,40,-100,-100,-100,0,0,100,0.00,40.00,0,-999,0,0.00
2012-10-19,55,47,43,-100,-100,-100,0,0,100,0.00,40.00,0,-999,0,0.00
2012-10-20,41,38,34,-100,-100,-100,0,0,100,0.00,40.00,0,-999,0,0.00
2012-10-21,44,36,32,-100,-100,-100,0,0,100,0.00,40.00,0,-999,0,0.00
2012-10-22,38,36,34,-100,-100,-100,0,0,100,0.00,40.00,0,-999,0,0.00
2012-10-23,42,37,34,-100,-100,-100,0,0,100,0.00,40.00,0,-999,0,0.00
2012-10-24,38,36,36,-100,-100,-100,0,0,100,0.00,40.00,0,-999,0,0.00
2012-10-25,45,38,36,-100,-100,-100,0,0,100,0.00,40.00,0,-999,0,0.00
2012-10-26,38,36,34,-100,-100,-100,0,0,100,0.00,40.00,0,-999,0,0.00
2012-10-27,40,36,33,-100,-100,-100,0,0,100,0.00,40.00,0,-999,0,0.00
2012-10-28,54,44,36,-100,-100,-100,0,0,100,0.00,40.00,0,-999,0,0.00
2012-10-29,53,45,43,-100,-100,-100,0,0,100,0.00,40.00,0,-999,0,0.00
2012-10-30,49,46,43,-100,-100,-100,0,0,100,0.00,40.00,0,-999,0,0.00
2012-10-31,51,48,46,-100,-100,-100,0,0,100,0.00,40.00,0,-999,0,0.00
2012-11-1,51,47,44,-100,-100,-100,0,0,100,0.00,40.00,0,-999,0,0.00
2012-11-2,50,45,43,-100,-100,-100,0,0,100,0.00,40.00,0,-999,0,0.00
2012-11-3,51,47,45,-100,-100,-100,0,0,100,0.00,40.00,0,-999,0,0.00
2012-11-4,52,49,47,-100,-100,-100,0,0,100,0.00,40.00,0,-999,0,0.00
2012-11-5,52,47,38,-100,-100,-100,0,0,100,0.00,40.00,0,-999,0,0.00
2012-11-6,48,41,32,-100,-100,-100,0,0,100,0.00,40.00,0,-999,0,0.00
2012-11-7,43,38,29,-100,-100,-100,0,0,100,0.00,40.00,0,-999,0,0.00
2012-11-8,40,32,29,-100,-100,-100,0,0,100,0.00,40.00,0,-999,0,0.00
2012-11-9,35,31,27,-100,-100,-100,0,0,100,0.00,40.00,0,-999,0,0.00
2012-11-10,36,32,30,-100,-100,-100,0,0,100,0.00,40.00,0,-999,0,0.00
2012-11-11,34,29,25,-100,-100,-100,0,0,100,0.00,40.00,0,-999,0,0.00
2012-11-12,35,32,29,-100,-100,-100,0,0,100,0.00,40.00,0,-999,0,0.00
2012-11-13,36,33,32,-100,-100,-100,0,0,100,0.00,40.00,0,-999,0,0.00
2012-11-14,39,35,32,-100,-100,-100,0,0,100,0.00,40.00,0,-999,0,0.00
2012-11-15,34,33,33,-100,-100,-100,0,0,100,0.00,40.00,0,-999,0,0.00
2012-11-16,37,34,32,-100,-100,-100,0,0,100,0.00,40.00,0,-999,0,0.00
2012-11-17,35,34,33,-100,-100,-100,0,0,100,0.00,40.00,0,-999,0,0.00
2012-11-18,38,34,31,-100,-100,-100,0,0,100,0.00,40.00,0,-999,0,0.00
2012-11-19,36,35,33,-100,-100,-100,0,0,100,0.00,40.00,0,-999,0,0.00
2012-11-20,40,36,34,-100,-100,-100,0,0,100,0.00,40.00,0,-999,0,0.00
2012-11-21,38,34,32,-100,-100,-100,0,0,100,0.00,40.00,0,-999,0,0.00
2012-11-22,37,34,30,-100,-100,-100,0,0,100,0.00,40.00,0,-999,0,0.00
2012-11-23,34,33,32,-100,-100,-100,0,0,100,0.00,40.00,0,-999,0,0.00
2012-11-24,35,31,29,-100,-100,-100,0,0,100,0.00,40.00,0,-999,0,0.00
2012-11-25,32,26,23,-100,-100,-100,0,0,100,0.00,40.00,0,-999,0,0.00
2012-11-26,23,22,20,-100,-100,-100,0,0,100,0.00,40.00,0,-999,0,0.00
2012-11-27,33,30,27,-100,-100,-100,0,0,100,0.00,40.00,0,-999,0,0.00
2012-11-28,34,30,25,-100,-100,-100,0,0,100,0.00,40.00,0,-999,0,0.00
2012-11-29,34,32,31,-100,-100,-100,0,0,100,0.00,40.00,0,-999,0,0.00
2012-11-30,36,33,32,-100,-100,-100,0,0,100,0.00,40.00,0,-999,0,0.00
2012-12-1,39,34,32,-100,-100,-100,0,0,100,0.00,40.00,0,-999,0,0.00
2012-12-2,37,34,32,-100,-100,-100,0,0,100,0.00,40.00,0,-999,0,0.00
2012-12-3,38,34,32,-100,-100,-100,0,0,100,0.00,40.00,0,-999,0,0.00
2012-12-4,38,35,33,-100,-100,-100,0,0,100,0.00,40.00,0,-999,0,0.00
2012-12-5,38,34,31,-100,-100,-100,0,0,100,0.00,40.00,0,-999,0,0.00
2012-12-6,33,32,31,-100,-100,-100,0,0,100,0.00,40.00,0,-999,0,0.00
2012-12-10,37,35,33,-100,-100,-100,0,0,100,0.00,40.00,0,-999,0,0.00
2012-12-11,34,32,31,-100,-100,-100,0,0,100,0.00,40.00,0,-999,0,0.00
2012-12-12,38,34,31,-100,-100,-100,0,0,100,0.00,40.00,0,-999,0,0.00
2012-12-13,30,29,27,-100,-100,-100,0,0,100,0.00,40.00,0,-999,0,0.00
2012-12-14,34,29,26,-100,-100,-100,0,0,100,0.00,40.00,0,-999,0,0.00
2012-12-15,30,28,26,-100,-100,-100,0,0,100,0.00,40.00,0,-999,0,0.00
2012-12-16,34,30,26,-100,-100,-100,0,0,100,0.00,40.00,0,-999,0,0.00
2012-12-17,30,29,29,-100,-100,-100,0,0,100,0.00,40.00,0,-999,0,0.00
2012-12-19,23,21,19,-100,-100,-100,0,0,100,0.00,40.00,0,-999,0,0.00
2012-12-23,31,31,31,-100,-100,-100,0,0,100,0.00,40.00,0,-999,0,0.00
2012-12-24,34,32,30,-100,-100,-100,0,0,100,0.00,40.00,0,-999,0,0.00
2012-12-26,31,30,29,-100,-100,-100,0,0,100,0.00,40.00,0,-999,0,0.00
2012-12-27,36,31,27,-100,-100,-100,0,0,100,0.00,40.00,0,-999,0,0.00
2012-12-28,31,29,26,-100,-100,-100,0,0,100,0.00,40.00,0,-999,0,0.00
2012-12-29,32,28,25,-100,-100,-100,0,0,100,0.00,40.00,0,-999,0,0.00
2012-12-30,36,26,25,-100,-100,-100,0,0,100,0.00,40.00,0,-999,0,0.00
2012-12-31,27,25,24,-100,-100,-100,0,0,100,0.00,40.00,0,-999,0,0.00
2013-1-1,27,24,21,-100,-100,-100,0,0,100,0.00,40.00,0,-999,0,0.00